Time;durP1;ratioP1;P1;durP2;ratioP2;P2;SDS_P1;SDS_P2;PMS_P1;PMS_P2;Temp;Humidity;BMP_temperature;BMP_pressure;BME280_temperature;BME280_humidity;BME280_pressure;Samples;Min_cycle;Max_cycle;Signal;HPM_P1;HPM_P2
2023/04/17 00:01:33;;;;;;;1999.90;999.90;;;9.70;99.90;;;;;;5029690;28;20431;-75
2023/04/17 00:03:59;;;;;;;1999.90;999.90;;;9.60;99.90;;;;;;5030374;28;20442;-75
2023/04/17 00:06:26;;;;;;;1999.90;999.90;;;9.60;99.90;;;;;;5029053;28;20439;-78
2023/04/17 00:08:53;;;;;;;1999.90;999.90;;;9.40;99.90;;;;;;5030257;28;20430;-75
2023/04/17 00:11:20;;;;;;;1999.90;999.90;;;9.30;99.90;;;;;;5029454;28;20876;-75
2023/04/17 00:13:47;;;;;;;1999.90;999.90;;;9.40;99.90;;;;;;5028884;28;20462;-76
2023/04/17 00:16:14;;;;;;;1999.90;999.90;;;9.40;99.90;;;;;;5029386;28;20446;-75
2023/04/17 00:18:42;;;;;;;1999.90;999.90;;;9.50;99.90;;;;;;5029227;28;20902;-75
2023/04/17 00:21:09;;;;;;;1999.90;999.90;;;9.40;99.90;;;;;;5029282;28;20434;-75
2023/04/17 00:23:35;;;;;;;1999.90;999.90;;;9.40;99.90;;;;;;5029355;28;20511;-76
2023/04/17 00:26:02;;;;;;;1999.90;999.90;;;9.30;99.90;;;;;;5029617;28;20451;-75
2023/04/17 00:28:29;;;;;;;1999.90;999.90;;;9.40;99.90;;;;;;5028538;28;20921;-75
2023/04/17 00:30:57;;;;;;;1999.90;999.90;;;9.60;99.90;;;;;;5028635;28;20513;-75
2023/04/17 00:33:23;;;;;;;1999.90;999.90;;;9.50;99.90;;;;;;5028866;28;20438;-75
2023/04/17 00:35:51;;;;;;;1999.90;999.90;;;9.40;99.90;;;;;;5028801;28;20439;-75
2023/04/17 00:38:18;;;;;;;1999.90;999.90;;;9.50;99.90;;;;;;5029921;28;20435;-78
2023/04/17 00:40:45;;;;;;;1999.90;999.90;;;9.40;99.90;;;;;;5027817;28;20431;-74
2023/04/17 00:43:11;;;;;;;1999.90;999.90;;;9.40;99.90;;;;;;5029515;28;20801;-75
2023/04/17 00:45:39;;;;;;;1999.90;999.90;;;9.40;99.90;;;;;;5029550;28;21237;-75
2023/04/17 00:48:08;;;;;;;1999.90;999.90;;;9.40;99.90;;;;;;5029966;28;20434;-75
2023/04/17 00:50:35;;;;;;;1999.90;999.90;;;9.30;99.90;;;;;;5027208;28;20435;-75
2023/04/17 00:53:03;;;;;;;1999.90;999.90;;;9.10;99.90;;;;;;5028019;28;20442;-75
2023/04/17 00:55:32;;;;;;;1999.90;999.90;;;9.10;99.90;;;;;;5029112;28;20500;-72
2023/04/17 00:57:58;;;;;;;1999.90;999.90;;;9.10;99.90;;;;;;5028920;28;20872;-73
2023/04/17 01:00:25;;;;;;;1999.90;999.90;;;9.00;99.90;;;;;;5026186;28;20858;-75
2023/04/17 01:02:52;;;;;;;1999.90;999.90;;;9.30;99.90;;;;;;5029354;28;20484;-75
2023/04/17 01:05:19;;;;;;;1999.90;999.90;;;9.00;99.90;;;;;;5029738;28;20493;-73
2023/04/17 01:07:46;;;;;;;1999.90;999.90;;;8.80;99.90;;;;;;5028080;28;20510;-72
2023/04/17 01:10:14;;;;;;;1999.90;999.90;;;8.80;99.90;;;;;;5028115;28;20975;-76
2023/04/17 01:12:45;;;;;;;1999.90;999.90;;;8.60;99.90;;;;;;5028447;28;20493;-74
2023/04/17 01:15:12;;;;;;;1999.90;999.90;;;8.70;99.90;;;;;;5026893;28;20522;-73
2023/04/17 01:17:38;;;;;;;1999.90;999.90;;;8.60;99.90;;;;;;5029174;28;20442;-79
2023/04/17 01:20:06;;;;;;;1999.90;999.90;;;8.60;99.90;;;;;;5022199;28;20489;-74
2023/04/17 01:22:33;;;;;;;1999.90;999.90;;;8.40;99.90;;;;;;5029001;28;20437;-74
2023/04/17 01:25:02;;;;;;;1999.90;999.90;;;8.50;99.90;;;;;;5028071;28;20458;-74
2023/04/17 01:27:28;;;;;;;1999.90;999.90;;;8.40;99.90;;;;;;5028919;28;20937;-74
2023/04/17 01:29:55;;;;;;;1999.90;999.90;;;8.30;99.90;;;;;;5026624;28;20484;-78
2023/04/17 01:32:21;;;;;;;1999.90;999.90;;;8.20;99.90;;;;;;5029642;28;20501;-75
2023/04/17 01:34:48;;;;;;;1999.90;999.90;;;8.10;99.90;;;;;;5026003;28;20431;-74
2023/04/17 01:37:15;;;;;;;1999.90;999.90;;;8.00;99.90;;;;;;5028540;28;20504;-74
2023/04/17 01:39:41;;;;;;;1999.90;999.90;;;8.00;99.90;;;;;;5028716;28;20510;-78
2023/04/17 01:42:09;;;;;;;1999.90;999.90;;;8.00;99.90;;;;;;5027719;28;20426;-75
2023/04/17 01:44:36;;;;;;;1999.90;999.90;;;8.10;99.90;;;;;;5028074;28;20481;-75
2023/04/17 01:47:03;;;;;;;1999.90;999.90;;;8.10;99.90;;;;;;5028485;28;20881;-74
2023/04/17 01:49:30;;;;;;;1999.90;999.90;;;8.10;99.90;;;;;;5028228;28;20489;-74
2023/04/17 01:51:57;;;;;;;1999.90;999.90;;;7.90;99.90;;;;;;5026289;28;20442;-75
2023/04/17 01:54:23;;;;;;;1999.90;999.90;;;7.80;99.90;;;;;;5024842;28;20656;-74
2023/04/17 01:56:50;;;;;;;1999.90;999.90;;;7.70;99.90;;;;;;5020241;28;20447;-74
2023/04/17 01:59:18;;;;;;;1999.90;999.90;;;7.40;99.90;;;;;;5028138;28;20431;-75
2023/04/17 02:01:45;;;;;;;1999.90;999.90;;;7.30;99.90;;;;;;5027520;28;20440;-74
2023/04/17 02:04:12;;;;;;;1999.90;999.90;;;7.20;99.90;;;;;;5027284;28;20431;-74
2023/04/17 02:06:38;;;;;;;1999.90;999.90;;;7.40;99.90;;;;;;5027525;28;20435;-74
2023/04/17 02:09:05;;;;;;;1999.90;999.90;;;7.40;99.90;;;;;;5028361;28;20426;-74
2023/04/17 02:11:32;;;;;;;1999.90;999.90;;;7.40;99.90;;;;;;5026268;28;20435;-74
2023/04/17 02:13:58;;;;;;;1999.90;999.90;;;7.30;99.90;;;;;;5028138;28;20465;-74
2023/04/17 02:16:27;;;;;;;1999.90;999.90;;;7.30;99.90;;;;;;5027069;28;20481;-74
2023/04/17 02:18:55;;;;;;;1999.90;999.90;;;7.20;99.90;;;;;;5027483;28;20431;-79
2023/04/17 02:21:21;;;;;;;1999.90;999.90;;;7.20;99.90;;;;;;5026084;28;20475;-74
2023/04/17 02:23:48;;;;;;;1999.90;999.90;;;7.20;99.90;;;;;;5028734;28;20439;-74
2023/04/17 02:26:15;;;;;;;1999.90;999.90;;;7.10;99.90;;;;;;5026730;28;20500;-74
2023/04/17 02:28:43;;;;;;;1999.90;999.90;;;7.10;99.90;;;;;;5027903;28;20497;-74
2023/04/17 02:31:11;;;;;;;1999.90;999.90;;;7.10;99.90;;;;;;5030216;28;20430;-77
2023/04/17 02:33:39;;;;;;;1999.90;999.90;;;7.20;99.90;;;;;;5028370;28;20436;-75
2023/04/17 02:36:07;;;;;;;1999.90;999.90;;;7.20;99.90;;;;;;5031239;28;20438;-75
2023/04/17 02:38:33;;;;;;;1999.90;999.90;;;7.20;99.90;;;;;;5027253;28;20434;-74
2023/04/17 02:41:00;;;;;;;1999.90;999.90;;;7.20;99.90;;;;;;5030834;28;20812;-75
2023/04/17 02:43:27;;;;;;;1999.90;999.90;;;7.30;99.90;;;;;;5030400;28;20439;-74
2023/04/17 02:45:54;;;;;;;1999.90;999.90;;;7.30;99.90;;;;;;5031523;28;20434;-77
2023/04/17 02:48:21;;;;;;;1999.90;999.90;;;7.40;99.90;;;;;;5028828;28;20466;-74
2023/04/17 02:50:49;;;;;;;1999.90;999.90;;;7.30;99.90;;;;;;5030347;28;20438;-74
2023/04/17 02:53:15;;;;;;;1999.90;999.90;;;7.10;99.90;;;;;;5029865;28;20440;-74
2023/04/17 02:55:42;;;;;;;1999.90;999.90;;;7.10;99.90;;;;;;5031830;28;20469;-77
2023/04/17 02:58:08;;;;;;;1999.90;999.90;;;7.00;99.90;;;;;;5030435;28;20469;-75
2023/04/17 03:00:35;;;;;;;1999.90;999.90;;;6.90;99.90;;;;;;5027724;28;20431;-74
2023/04/17 03:03:02;;;;;;;1999.90;999.90;;;7.10;99.90;;;;;;5031453;28;20438;-74
2023/04/17 03:05:29;;;;;;;1999.90;999.90;;;7.30;99.90;;;;;;5031811;28;20469;-76
2023/04/17 03:07:58;;;;;;;1999.90;999.90;;;7.30;99.90;;;;;;5030652;28;20434;-74
2023/04/17 03:10:25;;;;;;;1999.90;999.90;;;7.20;99.90;;;;;;5030330;28;20427;-73
2023/04/17 03:12:51;;;;;;;1999.90;999.90;;;7.00;99.90;;;;;;5030451;28;20508;-74
2023/04/17 03:15:18;;;;;;;1999.90;999.90;;;7.10;99.90;;;;;;5031424;28;20909;-74
2023/04/17 03:17:45;;;;;;;1999.90;999.90;;;7.10;99.90;;;;;;5029181;28;20836;-74
2023/04/17 03:20:12;;;;;;;1999.90;999.90;;;7.20;99.90;;;;;;5030403;28;20435;-74
2023/04/17 03:22:38;;;;;;;1999.90;999.90;;;7.30;99.90;;;;;;5031021;28;20430;-74
2023/04/17 03:25:07;;;;;;;1999.90;999.90;;;7.20;99.90;;;;;;5031115;28;20434;-74
2023/04/17 03:27:34;;;;;;;1999.90;999.90;;;7.30;99.90;;;;;;5028366;28;20546;-76
2023/04/17 03:30:01;;;;;;;1999.90;999.90;;;7.20;99.90;;;;;;5030439;28;20490;-76
2023/04/17 03:32:27;;;;;;;1999.90;999.90;;;7.20;99.90;;;;;;5030578;28;20844;-72
2023/04/17 03:34:54;;;;;;;1999.90;999.90;;;7.40;99.90;;;;;;5023918;28;21109;-75
2023/04/17 03:37:21;;;;;;;1999.90;999.90;;;7.40;99.90;;;;;;5029420;28;20492;-76
2023/04/17 03:39:48;;;;;;;1999.90;999.90;;;7.60;99.90;;;;;;5031635;28;20426;-75
2023/04/17 03:42:16;;;;;;;1999.90;999.90;;;7.60;99.90;;;;;;5028403;28;20434;-73
2023/04/17 03:44:42;;;;;;;1999.90;999.90;;;7.60;99.90;;;;;;5030348;28;20999;-72
2023/04/17 03:47:09;;;;;;;1999.90;999.90;;;7.60;99.90;;;;;;5026969;28;20439;-77
2023/04/17 03:49:36;;;;;;;1999.90;999.90;;;7.60;99.90;;;;;;5030355;28;20427;-74
2023/04/17 03:52:03;;;;;;;1999.90;999.90;;;7.60;99.90;;;;;;5029769;28;20438;-74
2023/04/17 03:54:34;;;;;;;1999.90;999.90;;;7.70;99.90;;;;;;5030391;28;20439;-77
2023/04/17 03:57:01;;;;;;;1999.90;999.90;;;7.60;99.90;;;;;;5030039;28;20475;-74
2023/04/17 03:59:30;;;;;;;1999.90;999.90;;;7.50;99.90;;;;;;5029135;28;20489;-74
2023/04/17 04:01:56;;;;;;;1999.90;999.90;;;7.70;99.90;;;;;;5028710;28;20431;-75
2023/04/17 04:04:23;;;;;;;1999.90;999.90;;;7.70;99.90;;;;;;5030252;28;20438;-75
2023/04/17 04:06:51;;;;;;;1999.90;999.90;;;7.80;99.90;;;;;;5028723;28;20434;-75
2023/04/17 04:09:18;;;;;;;1999.90;999.90;;;7.80;99.90;;;;;;5029989;28;20431;-74
2023/04/17 04:11:44;;;;;;;1999.90;999.90;;;7.60;99.90;;;;;;5029070;28;20481;-76
2023/04/17 04:14:11;;;;;;;1999.90;999.90;;;7.60;99.90;;;;;;5029150;28;20490;-73
2023/04/17 04:16:39;;;;;;;1999.90;999.90;;;7.60;99.90;;;;;;5029125;28;20799;-74
2023/04/17 04:19:06;;;;;;;1999.90;999.90;;;7.70;99.90;;;;;;5029695;28;20442;-74
2023/04/17 04:21:33;;;;;;;1999.90;999.90;;;7.70;99.90;;;;;;5029885;28;20668;-76
2023/04/17 04:24:00;;;;;;;1999.90;999.90;;;7.70;99.90;;;;;;5028937;28;20465;-74
2023/04/17 04:26:27;;;;;;;1999.90;999.90;;;7.70;99.90;;;;;;5023174;28;20426;-75
2023/04/17 04:28:53;;;;;;;1999.90;999.90;;;7.70;99.90;;;;;;5028890;28;20437;-74
2023/04/17 04:31:20;;;;;;;1999.90;999.90;;;8.00;99.90;;;;;;5029384;28;20497;-77
2023/04/17 04:33:53;;;;;;;1999.90;999.90;;;8.10;99.90;;;;;;5028959;28;20442;-74
2023/04/17 04:36:21;;;;;;;1999.90;999.90;;;8.00;99.90;;;;;;5027590;28;20525;-76
2023/04/17 04:38:49;;;;;;;1999.90;999.90;;;7.90;99.90;;;;;;5026639;28;20437;-76
2023/04/17 04:41:16;;;;;;;1999.90;999.90;;;7.90;99.90;;;;;;5029547;28;20426;-74
2023/04/17 04:43:43;;;;;;;1999.90;999.90;;;7.80;99.90;;;;;;5028511;28;20519;-70
2023/04/17 04:46:10;;;;;;;1999.90;999.90;;;7.80;99.90;;;;;;5029251;28;20439;-74
2023/04/17 04:48:37;;;;;;;1999.90;999.90;;;8.00;99.90;;;;;;5028202;28;20488;-75
2023/04/17 04:51:05;;;;;;;1999.90;999.90;;;8.00;99.90;;;;;;5028126;28;20920;-72
2023/04/17 04:53:31;;;;;;;1999.90;999.90;;;8.00;99.90;;;;;;5029625;28;20432;-76
2023/04/17 04:55:58;;;;;;;1999.90;999.90;;;8.00;99.90;;;;;;5029554;28;20469;-76
2023/04/17 04:58:25;;;;;;;1999.90;999.90;;;7.80;99.90;;;;;;5028693;28;20431;-70
2023/04/17 05:00:51;;;;;;;1999.90;999.90;;;7.80;99.90;;;;;;5026920;28;20423;-77
2023/04/17 05:03:18;;;;;;;1999.90;999.90;;;8.00;99.90;;;;;;5029132;28;20850;-74
2023/04/17 05:05:45;;;;;;;1999.90;999.90;;;7.90;99.90;;;;;;5029302;28;20638;-74
2023/04/17 05:08:13;;;;;;;1999.90;999.90;;;7.90;99.90;;;;;;5028495;28;20435;-73
2023/04/17 05:10:40;;;;;;;1999.90;999.90;;;7.80;99.90;;;;;;5027825;28;20470;-80
2023/04/17 05:13:06;;;;;;;1999.90;999.90;;;8.00;99.90;;;;;;5026522;28;20430;-71
2023/04/17 05:15:33;;;;;;;1999.90;999.90;;;8.00;99.90;;;;;;5027802;28;20504;-74
2023/04/17 05:18:00;;;;;;;1999.90;999.90;;;8.00;99.90;;;;;;5027086;28;20438;-74
2023/04/17 05:20:26;;;;;;;1999.90;999.90;;;7.90;99.90;;;;;;5028513;28;20434;-77
2023/04/17 05:22:53;;;;;;;1999.90;999.90;;;7.90;99.90;;;;;;5029089;28;20442;-74
2023/04/17 05:25:21;;;;;;;1999.90;999.90;;;7.80;99.90;;;;;;5029304;28;20434;-74
2023/04/17 05:27:48;;;;;;;1999.90;999.90;;;7.70;99.90;;;;;;5026940;28;20431;-70
2023/04/17 05:30:15;;;;;;;1999.90;999.90;;;7.70;99.90;;;;;;5026806;28;20481;-74
2023/04/17 05:32:42;;;;;;;1999.90;999.90;;;7.70;99.90;;;;;;5028560;28;20438;-75
2023/04/17 05:35:09;;;;;;;1999.90;999.90;;;7.70;99.90;;;;;;5026148;28;20465;-75
2023/04/17 05:37:36;;;;;;;1999.90;999.90;;;7.80;99.90;;;;;;5026181;28;20435;-74
2023/04/17 05:40:05;;;;;;;1999.90;999.90;;;7.80;99.90;;;;;;5027322;28;20426;-73
2023/04/17 05:42:33;;;;;;;1999.90;999.90;;;8.00;99.90;;;;;;5025373;28;20486;-74
2023/04/17 05:45:00;;;;;;;1999.90;999.90;;;8.10;99.90;;;;;;5024480;28;20488;-75
2023/04/17 05:47:27;;;;;;;1999.90;999.90;;;8.10;99.90;;;;;;5025370;28;20497;-74
2023/04/17 05:49:57;;;;;;;1999.90;999.90;;;8.30;99.90;;;;;;5026715;28;20427;-75
2023/04/17 05:52:24;;;;;;;1999.90;999.90;;;8.60;99.90;;;;;;5026388;28;20951;-74
2023/04/17 05:54:50;;;;;;;1999.90;999.90;;;8.50;99.90;;;;;;5024721;28;20466;-76
2023/04/17 05:57:17;;;;;;;1999.90;999.90;;;8.50;99.90;;;;;;5027634;28;20492;-73
2023/04/17 05:59:45;;;;;;;1999.90;999.90;;;8.70;99.90;;;;;;5028146;28;20435;-73
2023/04/17 06:02:12;;;;;;;1999.90;999.90;;;8.70;99.90;;;;;;5026830;28;20466;-73
2023/04/17 06:04:40;;;;;;;1999.90;999.90;;;8.60;99.90;;;;;;5028054;28;20489;-71
2023/04/17 06:07:07;;;;;;;1999.90;999.90;;;8.80;99.90;;;;;;5024788;28;20442;-75
2023/04/17 06:09:35;;;;;;;1999.90;999.90;;;8.90;99.90;;;;;;5027653;28;20445;-74
2023/04/17 06:12:02;;;;;;;1999.90;999.90;;;8.80;99.90;;;;;;5026616;28;21300;-75
2023/04/17 06:14:29;;;;;;;1999.90;999.90;;;8.90;99.90;;;;;;5028402;28;20864;-74
2023/04/17 06:16:57;;;;;;;1999.90;999.90;;;9.20;99.90;;;;;;5024100;28;20444;-74
2023/04/17 06:19:24;;;;;;;1999.90;999.90;;;9.20;99.90;;;;;;5024546;28;20443;-74
2023/04/17 06:21:50;;;;;;;1999.90;999.90;;;9.30;99.90;;;;;;5027725;28;20447;-74
2023/04/17 06:24:17;;;;;;;1999.90;999.90;;;9.40;99.90;;;;;;5026031;28;20812;-73
2023/04/17 06:26:44;;;;;;;1999.90;999.90;;;9.50;99.90;;;;;;5025400;28;21146;-73
2023/04/17 06:29:12;;;;;;;1999.90;999.90;;;9.50;99.90;;;;;;5024477;28;20517;-73
2023/04/17 06:31:39;;;;;;;1999.90;999.90;;;9.60;99.90;;;;;;5025325;28;20465;-78
2023/04/17 06:34:07;;;;;;;1999.90;999.90;;;9.60;99.90;;;;;;5026797;28;20423;-73
2023/04/17 06:36:34;;;;;;;1999.90;999.90;;;9.60;99.90;;;;;;5026640;28;20431;-73
2023/04/17 06:39:00;;;;;;;1999.90;999.90;;;9.50;99.90;;;;;;5026021;28;20439;-75
2023/04/17 06:41:27;;;;;;;1999.90;999.90;;;9.40;99.90;;;;;;5027548;28;20477;-77
2023/04/17 06:43:54;;;;;;;1999.90;999.90;;;9.40;99.90;;;;;;5026984;28;20856;-73
2023/04/17 06:46:21;;;;;;;1999.90;999.90;;;9.40;99.90;;;;;;5028889;28;20415;-72
2023/04/17 06:48:51;;;;;;;1999.90;999.90;;;9.40;99.90;;;;;;5024972;28;20921;-73
2023/04/17 06:51:20;;;;;;;1999.90;999.90;;;9.70;99.90;;;;;;5026559;28;20430;-74
2023/04/17 06:53:47;;;;;;;1999.90;999.90;;;10.20;99.90;;;;;;5022060;28;20443;-74
2023/04/17 06:56:14;;;;;;;1999.90;999.90;;;10.20;99.90;;;;;;5028500;28;20708;-73
2023/04/17 06:58:43;;;;;;;1999.90;999.90;;;10.20;99.90;;;;;;5027425;28;20485;-73
2023/04/17 07:01:09;;;;;;;1999.90;999.90;;;10.30;99.90;;;;;;5025140;28;20470;-73
2023/04/17 07:03:36;;;;;;;1999.90;999.90;;;10.40;99.90;;;;;;5026822;28;20488;-73
2023/04/17 07:06:03;;;;;;;1999.90;999.90;;;10.60;99.90;;;;;;5026218;28;20844;-74
2023/04/17 07:08:31;;;;;;;1999.90;999.90;;;10.50;99.90;;;;;;5027927;28;20504;-74
2023/04/17 07:10:58;;;;;;;1999.90;999.90;;;10.80;99.90;;;;;;5026643;28;20975;-75
2023/04/17 07:13:25;;;;;;;1999.90;999.90;;;11.20;99.90;;;;;;5027304;28;20852;-73
2023/04/17 07:15:53;;;;;;;1999.90;999.90;;;11.60;99.90;;;;;;5026370;28;20474;-71
2023/04/17 07:18:20;;;;;;;1999.90;999.90;;;11.60;99.90;;;;;;5029438;28;20427;-74
2023/04/17 07:20:47;;;;;;;1999.90;999.90;;;11.70;99.90;;;;;;5026374;28;20430;-74
2023/04/17 07:23:13;;;;;;;1999.90;999.90;;;11.60;99.90;;;;;;5025586;28;20490;-71
2023/04/17 07:25:41;;;;;;;1999.90;999.90;;;11.50;99.90;;;;;;5030357;28;20492;-73
2023/04/17 07:28:09;;;;;;;1999.90;999.90;;;11.90;99.90;;;;;;5030900;28;20435;-75
2023/04/17 07:30:36;;;;;;;1999.90;999.90;;;11.60;99.90;;;;;;5029849;28;20427;-73
2023/04/17 07:33:02;;;;;;;1999.90;999.90;;;11.80;99.90;;;;;;5029257;28;20442;-75
2023/04/17 07:35:29;;;;;;;1999.90;999.90;;;11.80;99.90;;;;;;5028734;28;20439;-73
2023/04/17 07:37:57;;;;;;;1999.90;999.90;;;11.60;99.90;;;;;;5029750;28;20430;-73
2023/04/17 07:40:24;;;;;;;1999.90;999.90;;;11.40;99.90;;;;;;5031231;28;20874;-75
2023/04/17 07:42:52;;;;;;;1999.90;999.90;;;11.20;99.90;;;;;;5028701;28;20923;-76
2023/04/17 07:45:19;;;;;;;1999.90;999.90;;;11.20;99.90;;;;;;5025825;28;20805;-75
2023/04/17 07:47:46;;;;;;;1999.90;999.90;;;11.20;99.90;;;;;;5030906;28;20423;-73
2023/04/17 07:50:13;;;;;;;1999.90;999.90;;;11.40;99.90;;;;;;5026545;28;20485;-73
2023/04/17 07:52:39;;;;;;;1999.90;999.90;;;11.60;99.90;;;;;;5029396;28;20442;-72
2023/04/17 07:55:07;;;;;;;1999.90;999.90;;;11.80;99.90;;;;;;5028336;28;20496;-73
2023/04/17 07:57:33;;;;;;;1999.90;999.90;;;11.50;99.90;;;;;;5028843;28;20519;-74
2023/04/17 08:00:06;;;;;;;1999.90;999.90;;;10.90;99.90;;;;;;5032542;28;20967;-74
2023/04/17 08:02:32;;;;;;;1999.90;999.90;;;11.00;99.90;;;;;;5033378;28;20450;-74
2023/04/17 08:05:00;;;;;;;1999.90;999.90;;;11.20;99.90;;;;;;5031733;28;20442;-73
2023/04/17 08:07:26;;;;;;;1999.90;999.90;;;11.30;99.90;;;;;;5032693;28;20419;-74
2023/04/17 08:09:53;;;;;;;1999.90;999.90;;;11.40;99.90;;;;;;5032630;28;20411;-74
2023/04/17 08:12:20;;;;;;;1999.90;999.90;;;11.70;99.90;;;;;;5032504;28;20429;-73
2023/04/17 08:14:46;;;;;;;1999.90;999.90;;;12.10;99.90;;;;;;5031484;28;20431;-70
2023/04/17 08:17:16;;;;;;;1999.90;999.90;;;12.40;99.90;;;;;;5032773;28;20478;-74
2023/04/17 08:19:43;;;;;;;1999.90;999.90;;;12.70;99.90;;;;;;5032848;28;20437;-74
2023/04/17 08:22:10;;;;;;;1999.90;999.90;;;13.00;99.90;;;;;;5032580;28;20832;-74
2023/04/17 08:24:36;;;;;;;1999.90;999.90;;;13.20;99.90;;;;;;5030667;28;20430;-73
2023/04/17 08:27:04;;;;;;;1999.90;999.90;;;13.20;99.90;;;;;;5031283;28;20435;-73
2023/04/17 08:29:30;;;;;;;1999.90;999.90;;;12.50;99.90;;;;;;5030053;28;20440;-73
2023/04/17 08:31:57;;;;;;;1999.90;999.90;;;12.50;99.90;;;;;;5032554;28;20481;-74
2023/04/17 08:34:26;;;;;;;1999.90;999.90;;;12.80;99.90;;;;;;5028323;28;20431;-76
2023/04/17 08:36:52;;;;;;;1999.90;999.90;;;13.00;99.90;;;;;;5029333;28;20442;-74
2023/04/17 08:39:19;;;;;;;1999.90;999.90;;;12.80;99.90;;;;;;5015746;28;20424;-73
2023/04/17 08:41:51;;;;;;;1999.90;999.90;;;12.80;99.90;;;;;;5012380;28;20467;-73
2023/04/17 08:44:20;;;;;;;1999.90;999.90;;;12.70;99.90;;;;;;5023906;28;20430;-74
2023/04/17 08:46:46;;;;;;;1999.90;999.90;;;12.80;99.90;;;;;;5031849;28;20947;-74
2023/04/17 08:49:14;;;;;;;1999.90;999.90;;;13.00;99.90;;;;;;5030829;28;20465;-74
2023/04/17 08:51:42;;;;;;;1999.90;999.90;;;13.40;99.90;;;;;;5031269;28;20430;-74
2023/04/17 08:54:08;;;;;;;1999.90;999.90;;;13.90;99.90;;;;;;5031963;28;20415;-71
2023/04/17 08:56:35;;;;;;;1999.90;999.90;;;14.10;99.90;;;;;;5027228;28;21008;-74
2023/04/17 08:59:03;;;;;;;1999.90;999.90;;;13.80;99.90;;;;;;5029696;28;20795;-73
2023/04/17 09:01:29;;;;;;;1999.90;999.90;;;13.70;99.90;;;;;;5021255;28;20437;-73
2023/04/17 09:03:56;;;;;;;1999.90;999.90;;;13.60;99.90;;;;;;5029262;28;20443;-74
2023/04/17 09:06:23;;;;;;;1999.90;999.90;;;13.80;99.90;;;;;;5023198;28;20440;-74
2023/04/17 09:08:59;;;;;;;1999.90;999.90;;;13.60;99.90;;;;;;5031595;28;20430;-73
2023/04/17 09:11:26;;;;;;;1999.90;999.90;;;13.60;99.90;;;;;;5030679;28;20794;-72
2023/04/17 09:13:53;;;;;;;1999.90;999.90;;;13.70;99.90;;;;;;5031890;28;20473;-74
2023/04/17 09:16:20;;;;;;;1999.90;999.90;;;14.20;99.90;;;;;;5031872;28;20415;-73
2023/04/17 09:18:48;;;;;;;1999.90;999.90;;;14.20;99.90;;;;;;5031523;28;20423;-74
2023/04/17 09:21:17;;;;;;;1999.90;999.90;;;14.20;99.90;;;;;;5030853;28;20897;-72
2023/04/17 09:23:49;;;;;;;1999.90;999.90;;;13.90;99.90;;;;;;5031534;28;20459;-73
2023/04/17 09:26:19;;;;;;;1999.90;999.90;;;13.70;99.90;;;;;;5031624;28;20411;-74
2023/04/17 09:29:10;;;;;;;1999.90;999.90;;;13.90;99.90;;;;;;5031451;28;20411;-71
2023/04/17 09:31:37;;;;;;;1999.90;999.90;;;13.70;99.90;;;;;;5027318;28;20434;-74
2023/04/17 09:34:06;;;;;;;1999.90;999.90;;;13.50;99.90;;;;;;5026866;28;20436;-74
2023/04/17 09:36:35;;;;;;;1999.90;999.90;;;13.70;99.90;;;;;;5026907;28;20458;-74
2023/04/17 09:39:03;;;;;;;1999.90;999.90;;;13.50;99.90;;;;;;5018898;28;20485;-72
2023/04/17 09:41:33;;;;;;;1999.90;999.90;;;13.30;99.90;;;;;;5021903;28;20500;-76
2023/04/17 09:44:04;;;;;;;1999.90;999.90;;;13.50;99.90;;;;;;5026451;28;20426;-74
2023/04/17 09:46:32;;;;;;;1999.90;999.90;;;13.40;99.90;;;;;;5024626;28;20610;-75
2023/04/17 09:49:01;;;;;;;1999.90;999.90;;;13.50;99.90;;;;;;5028148;28;20479;-75
2023/04/17 09:51:29;;;;;;;1999.90;999.90;;;13.60;99.90;;;;;;5025595;28;20518;-77
2023/04/17 09:53:58;;;;;;;1999.90;999.90;;;14.30;99.90;;;;;;5027823;28;20441;-74
2023/04/17 09:56:26;;;;;;;1999.90;999.90;;;14.10;99.90;;;;;;5027157;28;20444;-74
2023/04/17 09:58:56;;;;;;;1999.90;999.90;;;14.20;99.90;;;;;;5025373;28;20887;-73
2023/04/17 10:01:25;;;;;;;1999.90;999.90;;;14.40;99.90;;;;;;5026583;28;21318;-74
2023/04/17 10:03:51;;;;;;;1999.90;999.90;;;14.30;99.90;;;;;;5017792;28;20433;-72
2023/04/17 10:06:19;;;;;;;1999.90;999.90;;;14.40;99.90;;;;;;5027002;28;20430;-73
2023/04/17 10:08:46;;;;;;;1999.90;999.90;;;14.70;99.90;;;;;;5030814;28;20469;-72
2023/04/17 10:11:13;;;;;;;1999.90;999.90;;;14.50;99.90;;;;;;5029576;28;20838;-72
2023/04/17 10:13:42;;;;;;;1999.90;999.90;;;14.40;99.90;;;;;;5030430;28;20979;-74
2023/04/17 10:16:10;;;;;;;1999.90;999.90;;;14.20;99.90;;;;;;5030718;28;20415;-75
2023/04/17 10:18:37;;;;;;;1999.90;999.90;;;14.00;99.90;;;;;;5030971;28;20419;-73
2023/04/17 10:23:35;;;;;;;1999.90;999.90;;;14.20;99.90;;;;;;5041511;28;20799;-73
2023/04/17 10:26:41;;;;;;;1999.90;999.90;;;14.10;99.90;;;;;;5050020;28;20418;-71
2023/04/17 10:29:09;;;;;;;1999.90;999.90;;;14.30;99.90;;;;;;5050304;28;20409;-71
2023/04/17 10:32:09;;;;;;;1999.90;999.90;;;14.60;99.90;;;;;;5047048;28;20456;-74
2023/04/17 10:34:38;;;;;;;1999.90;999.90;;;14.30;99.90;;;;;;5048164;28;20409;-75
2023/04/17 10:37:05;;;;;;;1999.90;999.90;;;14.40;99.90;;;;;;5050180;28;20420;-74
2023/04/17 10:39:50;;;;;;;1999.90;999.90;;;14.80;99.90;;;;;;5050197;28;20496;-74
2023/04/17 10:42:21;;;;;;;1999.90;999.90;;;14.70;99.20;;;;;;5041714;28;20581;-74
2023/04/17 10:44:49;;;;;;;1999.90;999.90;;;14.40;99.80;;;;;;5049660;28;20421;-74
2023/04/17 10:47:19;;;;;;;1999.90;999.90;;;14.30;99.90;;;;;;5049863;28;20418;-74
2023/04/17 10:49:51;;;;;;;1999.90;999.90;;;14.30;99.90;;;;;;5050028;28;20421;-74
2023/04/17 10:52:38;;;;;;;1999.90;999.90;;;14.30;99.90;;;;;;5044487;28;20493;-73
2023/04/17 10:55:06;;;;;;;1999.90;999.90;;;14.30;99.90;;;;;;5047680;28;20496;-74
2023/04/17 10:57:52;;;;;;;1999.90;999.90;;;14.30;99.90;;;;;;5053595;28;20501;-74
2023/04/17 11:00:20;;;;;;;1999.90;999.90;;;14.30;99.90;;;;;;5052521;28;20488;-74
2023/04/17 11:02:49;;;;;;;1999.90;999.90;;;14.40;99.90;;;;;;5045482;28;20417;-73
2023/04/17 11:05:17;;;;;;;1999.90;999.90;;;14.70;99.90;;;;;;5053821;28;20417;-75
2023/04/17 11:07:49;;;;;;;1999.90;999.90;;;14.90;99.90;;;;;;5053604;28;20421;-75
2023/04/17 11:10:16;;;;;;;1999.90;999.90;;;15.10;99.80;;;;;;5052326;28;20514;-73
2023/04/17 11:12:45;;;;;;;1999.90;999.90;;;14.90;99.90;;;;;;5053202;28;20524;-74
2023/04/17 11:15:12;;;;;;;1999.90;999.90;;;15.00;99.90;;;;;;5053927;28;20429;-74
2023/04/17 11:17:39;;;;;;;1999.90;999.90;;;15.20;99.90;;;;;;5053723;28;20831;-73
2023/04/17 11:20:07;;;;;;;1999.90;999.90;;;14.80;99.40;;;;;;5052681;28;20516;-73
2023/04/17 11:22:36;;;;;;;1999.90;999.90;;;14.90;99.90;;;;;;5053448;28;20448;-70
2023/04/17 11:25:03;;;;;;;1999.90;999.90;;;15.20;99.10;;;;;;5053391;28;20413;-74
2023/04/17 11:27:29;;;;;;;1999.90;999.90;;;15.00;99.40;;;;;;5053436;28;20945;-74
2023/04/17 11:29:56;;;;;;;1999.90;999.90;;;15.10;99.90;;;;;;5051485;28;20449;-73
2023/04/17 11:32:23;;;;;;;1999.90;999.90;;;15.50;99.80;;;;;;5050399;28;20433;-74
2023/04/17 11:34:50;;;;;;;1999.90;999.90;;;15.60;98.60;;;;;;5053140;28;20417;-76
2023/04/17 11:37:17;;;;;;;1999.90;999.90;;;15.20;99.90;;;;;;5053369;28;20421;-73
2023/04/17 11:39:45;;;;;;;1999.90;999.90;;;15.40;97.90;;;;;;5051621;28;20562;-73
2023/04/17 11:42:12;;;;;;;1999.90;999.90;;;15.40;99.80;;;;;;5045038;28;20409;-74
2023/04/17 11:44:43;;;;;;;1999.90;999.90;;;15.70;99.90;;;;;;5053398;28;20413;-74
2023/04/17 11:47:09;;;;;;;1999.90;999.90;;;15.60;99.90;;;;;;5052137;28;20460;-74
2023/04/17 11:49:39;;;;;;;1999.90;999.90;;;15.70;99.80;;;;;;5051960;28;20474;-72
2023/04/17 11:52:06;;;;;;;1999.90;999.90;;;15.40;98.60;;;;;;5049872;28;20444;-74
2023/04/17 11:54:35;;;;;;;1999.90;999.90;;;14.90;99.00;;;;;;5042756;28;20850;-74
2023/04/17 11:57:05;;;;;;;1999.90;999.90;;;14.60;99.80;;;;;;5045939;28;20499;-73
2023/04/17 11:59:33;;;;;;;1999.90;999.90;;;14.50;98.80;;;;;;5048930;28;20433;-72
2023/04/17 12:02:00;;;;;;;1999.90;999.90;;;14.30;99.10;;;;;;5047765;28;20471;-74
2023/04/17 12:04:28;;;;;;;1999.90;999.90;;;14.20;98.60;;;;;;5048102;28;20448;-74
2023/04/17 12:06:55;;;;;;;1999.90;999.90;;;14.30;99.00;;;;;;5045393;28;20457;-73
2023/04/17 12:09:23;;;;;;;1999.90;999.90;;;14.60;98.70;;;;;;5049993;28;20441;-71